createdAt,value
2019-02-14T00:03:10.144Z,29.93
2019-02-14T00:08:13.972Z,35.67
2019-02-14T00:13:17.900Z,33.63
2019-02-14T00:18:21.805Z,30.73
2019-02-14T00:23:25.726Z,31.93
2019-02-14T00:28:29.916Z,32.00
2019-02-14T00:33:33.844Z,29.93
2019-02-14T00:38:38.004Z,32.57
2019-02-14T00:43:43.246Z,34.20
2019-02-14T00:48:47.205Z,29.67
2019-02-14T00:53:51.228Z,31.33
2019-02-14T00:58:55.224Z,36.00
2019-02-14T01:03:59.176Z,33.13
2019-02-14T01:09:03.219Z,29.57
2019-02-14T01:14:08.102Z,28.37
2019-02-14T01:19:12.005Z,33.43
2019-02-14T01:24:15.897Z,30.17
2019-02-14T01:29:19.966Z,36.60
2019-02-14T01:34:23.889Z,32.47
2019-02-14T01:39:27.818Z,35.43
2019-02-14T01:44:31.682Z,34.70
2019-02-14T01:49:36.279Z,40.83
2019-02-14T01:54:40.168Z,36.90
2019-02-14T01:59:44.146Z,38.40
2019-02-14T02:04:48.060Z,34.37
2019-02-14T02:09:51.976Z,38.37
2019-02-14T02:14:55.857Z,34.83
2019-02-14T02:19:59.773Z,37.70
2019-02-14T02:25:04.585Z,31.73
2019-02-14T02:30:10.735Z,31.17
2019-02-14T02:35:14.689Z,35.07
2019-02-14T02:40:18.682Z,38.47
2019-02-14T02:45:22.603Z,38.10
2019-02-14T02:50:26.636Z,37.33
2019-02-14T02:55:30.570Z,35.97
2019-02-14T03:00:34.472Z,32.10
2019-02-14T03:05:38.355Z,30.40
2019-02-14T03:10:42.313Z,34.90
2019-02-14T03:15:46.278Z,35.97
2019-02-14T03:20:50.248Z,40.23
2019-02-14T03:25:54.135Z,30.73
2019-02-14T03:30:57.972Z,33.00
2019-02-14T03:36:01.816Z,30.30
2019-02-14T03:41:05.779Z,32.07
2019-02-14T03:46:09.700Z,32.10
2019-02-14T03:51:13.692Z,29.97
2019-02-14T03:56:17.784Z,36.07
2019-02-14T04:01:21.778Z,33.40
2019-02-14T04:06:27.808Z,32.80
2019-02-14T04:11:31.815Z,33.50
2019-02-14T04:16:35.782Z,33.97
2019-02-14T04:21:39.594Z,33.57
2019-02-14T04:26:43.544Z,30.60
2019-02-14T04:31:47.436Z,34.30
2019-02-14T04:36:51.313Z,32.53
2019-02-14T04:41:55.282Z,34.37
2019-02-14T04:46:59.164Z,34.20
2019-02-14T04:52:03.063Z,32.60
2019-02-14T04:57:06.888Z,30.23
2019-02-14T05:02:10.716Z,34.03
2019-02-14T05:07:14.668Z,36.53
2019-02-14T05:12:18.581Z,35.57
2019-02-14T05:17:22.566Z,34.03
2019-02-14T05:22:26.449Z,29.97
2019-02-14T05:27:30.383Z,32.03
2019-02-14T05:32:34.246Z,31.53
2019-02-14T05:37:38.156Z,34.87
2019-02-14T05:42:41.963Z,37.33
2019-02-14T05:47:45.929Z,27.63
2019-02-14T05:52:49.949Z,33.43
2019-02-14T05:57:53.807Z,38.00
2019-02-14T06:02:57.801Z,36.63
2019-02-14T06:08:03.364Z,31.27
2019-02-14T06:13:07.342Z,32.80
2019-02-14T06:18:11.370Z,33.00
2019-02-14T06:23:15.307Z,31.67
2019-02-14T06:28:19.393Z,28.97
2019-02-14T06:33:23.352Z,32.97
2019-02-14T06:38:27.498Z,32.20
2019-02-14T06:43:31.850Z,32.17
2019-02-14T06:48:35.756Z,31.30
2019-02-14T06:53:39.768Z,31.30
2019-02-14T06:58:43.786Z,32.00
2019-02-14T07:03:47.793Z,32.80
2019-02-14T07:08:51.624Z,34.80
2019-02-14T07:13:55.575Z,30.07
2019-02-14T07:18:59.482Z,36.03
2019-02-14T07:24:03.444Z,31.70
2019-02-14T07:29:07.481Z,28.43
2019-02-14T07:34:11.418Z,35.37
2019-02-14T07:39:15.408Z,32.40
2019-02-14T07:44:19.571Z,34.20
2019-02-14T07:49:23.477Z,32.07
2019-02-14T07:54:27.564Z,30.37
2019-02-14T07:59:31.455Z,28.00
2019-02-14T08:04:35.449Z,31.03
2019-02-14T08:09:40.354Z,32.60
2019-02-14T08:14:44.392Z,33.20
2019-02-14T08:19:48.673Z,25.00
2019-02-14T08:24:52.582Z,25.33
2019-02-14T08:29:56.461Z,28.53
2019-02-14T08:35:00.536Z,27.17
2019-02-14T08:40:04.802Z,27.37
2019-02-14T08:45:09.781Z,23.57
2019-02-14T08:50:13.732Z,20.53
2019-02-14T08:55:17.820Z,19.60
2019-02-14T09:00:21.659Z,22.43
2019-02-14T09:05:25.644Z,21.90
2019-02-14T09:10:29.616Z,19.47
2019-02-14T09:15:33.460Z,20.67
2019-02-14T09:20:37.492Z,18.37
2019-02-14T09:25:42.227Z,21.47
2019-02-14T09:30:46.429Z,16.37
2019-02-14T09:35:50.382Z,15.43
2019-02-14T09:40:54.820Z,20.33
2019-02-14T09:45:59.010Z,18.13
2019-02-14T09:51:03.171Z,14.13
2019-02-14T09:56:07.786Z,16.97
2019-02-14T10:01:11.638Z,13.43
2019-02-14T10:06:15.656Z,18.83
2019-02-14T10:11:19.683Z,15.70
2019-02-14T10:16:23.614Z,12.97
2019-02-14T10:21:27.552Z,14.98
2019-02-14T10:26:31.760Z,15.68
2019-02-14T10:31:36.404Z,16.57
2019-02-14T10:36:40.424Z,14.40
2019-02-14T10:41:44.338Z,15.40
2019-02-14T10:46:48.362Z,12.80
2019-02-14T10:51:52.372Z,15.03
2019-02-14T10:56:56.296Z,12.03
2019-02-14T11:02:00.145Z,16.05
2019-02-14T11:07:04.154Z,14.10
2019-02-14T11:12:08.636Z,14.43
2019-02-14T11:17:13.261Z,12.40
2019-02-14T11:22:17.284Z,13.80
2019-02-14T11:27:21.172Z,14.78
2019-02-14T11:32:25.108Z,14.10
2019-02-14T11:37:29.169Z,13.30
2019-02-14T11:42:33.282Z,11.30
2019-02-14T11:47:37.090Z,12.23
2019-02-14T11:52:43.068Z,13.15
2019-02-14T11:57:47.052Z,15.93
2019-02-14T12:02:55.456Z,11.18
2019-02-14T12:07:56.776Z,15.72
2019-02-14T12:13:00.701Z,14.30
2019-02-14T12:18:04.816Z,15.40
2019-02-14T12:23:08.800Z,14.95
2019-02-14T12:28:12.734Z,14.63
2019-02-14T12:33:16.720Z,12.98
2019-02-14T12:38:20.744Z,14.95
2019-02-14T12:43:24.816Z,10.88
2019-02-14T12:48:28.920Z,13.25
2019-02-14T12:53:33.229Z,11.57
2019-02-14T12:58:37.210Z,13.50
2019-02-14T13:03:41.147Z,11.50
2019-02-14T13:08:45.085Z,11.08
2019-02-14T13:13:50.361Z,15.00
2019-02-14T13:18:54.638Z,11.55
2019-02-14T13:23:58.630Z,12.65
2019-02-14T13:29:02.538Z,15.85
2019-02-14T13:34:06.470Z,13.83
2019-02-14T13:39:10.694Z,8.80
2019-02-14T13:44:14.553Z,8.73
2019-02-14T13:49:18.781Z,10.48
2019-02-14T13:54:22.680Z,9.35
2019-02-14T13:59:26.588Z,10.30
2019-02-14T14:04:30.964Z,9.35
2019-02-14T14:09:38.711Z,12.05
2019-02-14T14:14:40.807Z,10.48
2019-02-14T14:19:44.729Z,9.83
2019-02-14T14:24:48.667Z,7.08
2019-02-14T14:29:53.006Z,7.83
2019-02-14T14:34:56.854Z,6.50
2019-02-14T14:40:00.963Z,11.65
2019-02-14T14:45:07.167Z,8.43
2019-02-14T14:50:11.171Z,9.35
2019-02-14T14:55:15.119Z,8.53
2019-02-14T15:00:19.284Z,10.13
2019-02-14T15:05:23.489Z,11.88
2019-02-14T15:10:27.486Z,7.60
2019-02-14T15:15:31.539Z,8.70
2019-02-14T15:20:35.525Z,8.78
2019-02-14T15:25:39.476Z,10.55
2019-02-14T15:30:43.588Z,13.03
2019-02-14T15:35:47.516Z,10.40
2019-02-14T15:40:51.387Z,10.45
2019-02-14T15:45:55.412Z,13.65
2019-02-14T15:50:59.555Z,17.05
2019-02-14T15:56:05.432Z,18.17
2019-02-14T16:01:09.197Z,12.47
2019-02-14T16:06:13.807Z,14.33
2019-02-14T16:11:19.620Z,15.90
2019-02-14T16:16:24.188Z,12.40
2019-02-14T16:21:29.526Z,11.97
2019-02-14T16:26:35.301Z,12.03
2019-02-14T16:31:39.627Z,11.00
2019-02-14T16:36:43.621Z,18.20
2019-02-14T16:41:47.628Z,23.77
2019-02-14T16:46:51.577Z,13.40
2019-02-14T16:51:55.501Z,19.77
2019-02-14T16:56:59.629Z,19.30
2019-02-14T17:02:03.547Z,17.32
2019-02-14T17:07:07.833Z,9.00
2019-02-14T17:12:11.731Z,9.23
2019-02-14T17:17:15.637Z,11.20
2019-02-14T17:22:20.915Z,11.83
2019-02-14T17:27:25.162Z,12.03
2019-02-14T17:32:32.083Z,12.73
2019-02-14T17:37:36.027Z,9.63
2019-02-14T17:42:40.080Z,16.77
2019-02-14T17:47:44.448Z,12.20
2019-02-14T17:52:48.501Z,13.70
2019-02-14T17:57:53.838Z,15.70
2019-02-14T18:02:59.043Z,15.43
2019-02-14T18:08:03.009Z,12.25
2019-02-14T18:13:07.105Z,14.28
2019-02-14T18:18:11.278Z,10.08
2019-02-14T18:23:15.195Z,11.85
2019-02-14T18:28:19.639Z,16.10
2019-02-14T18:33:23.752Z,11.65
2019-02-14T18:38:27.764Z,12.20
2019-02-14T18:43:31.620Z,12.35
2019-02-14T18:48:35.724Z,16.57
2019-02-14T18:53:39.748Z,13.65
2019-02-14T18:58:43.760Z,16.37
2019-02-14T19:03:47.619Z,12.05
2019-02-14T19:08:51.949Z,17.35
2019-02-14T19:13:55.930Z,11.30
2019-02-14T19:18:59.943Z,15.75
2019-02-14T19:24:03.967Z,15.78
2019-02-14T19:29:08.278Z,18.48
2019-02-14T19:34:12.454Z,14.40
2019-02-14T19:39:16.351Z,17.95
2019-02-14T19:44:20.204Z,20.90
2019-02-14T19:49:24.200Z,16.23
2019-02-14T19:54:28.221Z,16.80
2019-02-14T19:59:32.096Z,14.97
2019-02-14T20:04:36.124Z,16.77
2019-02-14T20:09:41.633Z,17.73
2019-02-14T20:14:45.729Z,20.70
2019-02-14T20:19:49.793Z,14.73
2019-02-14T20:24:57.252Z,17.90
2019-02-14T20:58:47.822Z,15.37
2019-02-14T21:04:03.143Z,16.43
2019-02-14T21:16:02.924Z,23.67
2019-02-14T21:21:07.440Z,20.73
2019-02-14T21:26:11.584Z,15.27
2019-02-14T21:31:15.841Z,15.27
2019-02-14T21:36:19.665Z,15.83
2019-02-14T21:41:23.668Z,18.87
2019-02-14T21:46:27.521Z,19.20
2019-02-14T21:51:31.423Z,18.13
2019-02-14T21:56:35.416Z,17.83
2019-02-14T22:01:39.453Z,21.83
2019-02-14T22:06:43.487Z,18.37
2019-02-14T22:11:47.502Z,17.23
2019-02-14T22:16:51.319Z,18.57
2019-02-14T22:21:55.426Z,17.90
2019-02-14T22:26:59.443Z,30.90
2019-02-14T22:32:03.407Z,19.47
2019-02-14T22:37:07.270Z,21.33
2019-02-14T22:42:11.380Z,19.83
2019-02-14T22:47:15.529Z,20.20
2019-02-14T22:52:20.062Z,22.07
2019-02-14T22:57:24.052Z,15.43
2019-02-14T23:02:28.051Z,22.10
2019-02-14T23:07:32.164Z,16.50
2019-02-14T23:12:36.006Z,21.83
2019-02-14T23:17:39.978Z,16.77
2019-02-14T23:22:43.868Z,17.73
2019-02-14T23:27:47.782Z,15.53
2019-02-14T23:32:51.770Z,17.43
2019-02-14T23:37:55.760Z,16.60
2019-02-14T23:43:04.847Z,17.23
2019-02-14T23:48:05.325Z,13.47
2019-02-14T23:53:09.268Z,19.00
2019-02-14T23:58:14.721Z,18.80
